createdAt,value
2018-04-17T00:00:57.386Z,31.67
2018-04-17T00:02:03.923Z,30.15
2018-04-17T00:03:09.694Z,30.10
2018-04-17T00:04:16.233Z,31.05
2018-04-17T00:05:22.024Z,28.23
2018-04-17T00:06:27.798Z,29.65
2018-04-17T00:07:33.569Z,30.55
2018-04-17T00:08:39.339Z,28.67
2018-04-17T00:09:45.099Z,29.23
2018-04-17T00:10:50.903Z,29.75
2018-04-17T00:11:57.450Z,29.52
2018-04-17T00:13:03.203Z,30.50
2018-04-17T00:14:08.979Z,29.02
2018-04-17T00:15:14.765Z,30.15
2018-04-17T00:16:20.561Z,28.92
2018-04-17T00:17:26.326Z,29.48
2018-04-17T00:18:32.096Z,29.50
2018-04-17T00:19:37.862Z,29.23
2018-04-17T00:20:44.392Z,30.75
2018-04-17T00:21:50.249Z,30.52
2018-04-17T00:22:56.043Z,29.90
2018-04-17T00:24:01.671Z,29.95
2018-04-17T00:25:07.439Z,30.70
2018-04-17T00:26:13.263Z,29.58
2018-04-17T00:27:18.719Z,30.80
2018-04-17T00:28:25.804Z,29.67
2018-04-17T00:29:31.580Z,30.62
2018-04-17T00:30:38.136Z,29.85
2018-04-17T00:31:44.696Z,31.77
2018-04-17T00:32:51.339Z,29.30
2018-04-17T00:33:57.099Z,31.20
2018-04-17T00:35:03.619Z,30.75
2018-04-17T00:36:09.383Z,30.12
2018-04-17T00:37:15.167Z,29.25
2018-04-17T00:38:20.955Z,30.62
2018-04-17T00:39:26.730Z,30.70
2018-04-17T00:40:33.252Z,29.45
2018-04-17T00:41:39.018Z,28.05
2018-04-17T00:42:45.555Z,30.80
2018-04-17T00:43:51.151Z,29.00
2018-04-17T00:44:56.918Z,29.73
2018-04-17T00:46:02.894Z,30.98
2018-04-17T00:47:08.664Z,30.42
2018-04-17T00:48:15.194Z,29.83
2018-04-17T00:49:22.508Z,29.20
2018-04-17T00:50:28.302Z,28.35
2018-04-17T00:51:34.071Z,29.73
2018-04-17T00:52:40.606Z,29.48
2018-04-17T00:53:54.058Z,30.20
2018-04-17T00:55:00.620Z,29.83
2018-04-17T00:56:07.147Z,31.33
2018-04-17T00:57:12.915Z,29.40
2018-04-17T00:58:18.689Z,29.67
2018-04-17T00:59:24.459Z,29.05
2018-04-17T01:00:30.247Z,30.55
2018-04-17T01:01:36.913Z,30.58
2018-04-17T01:02:43.460Z,30.62
2018-04-17T01:03:49.240Z,29.37
2018-04-17T01:04:55.004Z,29.58
2018-04-17T01:06:00.825Z,31.45
2018-04-17T01:07:06.588Z,31.77
2018-04-17T01:08:12.151Z,30.15
2018-04-17T01:09:17.976Z,31.27
2018-04-17T01:10:23.749Z,32.50
2018-04-17T01:11:29.543Z,30.98
2018-04-17T01:12:35.435Z,30.15
2018-04-17T01:13:41.214Z,31.15
2018-04-17T01:14:46.972Z,31.85
2018-04-17T01:15:52.747Z,30.23
2018-04-17T01:16:58.545Z,31.87
2018-04-17T01:18:04.319Z,33.00
2018-04-17T01:19:10.088Z,31.98
2018-04-17T01:20:15.883Z,30.77
2018-04-17T01:21:21.670Z,31.60
2018-04-17T01:22:27.258Z,32.67
2018-04-17T01:23:33.029Z,33.03
2018-04-17T01:24:38.787Z,32.63
2018-04-17T01:25:44.569Z,31.75
2018-04-17T01:26:50.448Z,32.05
2018-04-17T01:27:56.244Z,33.70
2018-04-17T01:29:02.011Z,33.13
2018-04-17T01:30:07.810Z,32.83
2018-04-17T01:31:14.401Z,34.38
2018-04-17T01:32:20.168Z,33.63
2018-04-17T01:33:25.759Z,35.00
2018-04-17T01:34:32.299Z,35.30
2018-04-17T01:35:38.069Z,33.42
2018-04-17T01:36:43.923Z,34.60
2018-04-17T01:37:49.687Z,35.83
2018-04-17T01:38:55.513Z,34.78
2018-04-17T01:40:01.299Z,33.97
2018-04-17T01:41:07.079Z,35.33
2018-04-17T01:42:13.620Z,34.42
2018-04-17T01:43:20.154Z,34.55
2018-04-17T01:44:25.951Z,34.75
2018-04-17T01:45:31.739Z,34.60
2018-04-17T01:46:37.512Z,35.20
2018-04-17T01:47:44.047Z,35.15
2018-04-17T01:48:49.807Z,34.22
2018-04-17T01:49:56.379Z,37.10
2018-04-17T01:51:02.905Z,34.72
2018-04-17T01:52:08.669Z,38.33
2018-04-17T01:53:14.979Z,35.83
2018-04-17T01:54:20.771Z,35.65
2018-04-17T01:55:26.552Z,36.85
2018-04-17T01:56:32.323Z,35.13
2018-04-17T01:57:38.103Z,35.25
2018-04-17T01:58:44.652Z,35.20
2018-04-17T01:59:50.454Z,37.33
2018-04-17T02:00:56.243Z,37.88
2018-04-17T02:02:02.783Z,36.90
2018-04-17T02:03:08.880Z,35.47
2018-04-17T02:04:14.820Z,37.85
2018-04-17T02:05:20.669Z,37.28
2018-04-17T02:06:26.499Z,36.63
2018-04-17T02:07:33.027Z,36.30
2018-04-17T02:08:38.795Z,37.92
2018-04-17T02:09:45.327Z,37.80
2018-04-17T02:10:51.086Z,38.35
2018-04-17T02:11:57.657Z,37.88
2018-04-17T02:13:04.186Z,38.80
2018-04-17T02:14:09.955Z,36.28
2018-04-17T02:15:16.587Z,39.28
2018-04-17T02:16:23.122Z,41.15
2018-04-17T02:17:28.915Z,39.72
2018-04-17T02:18:35.451Z,37.83
2018-04-17T02:19:41.222Z,39.53
2018-04-17T02:20:47.754Z,38.67
2018-04-17T02:21:53.526Z,39.05
2018-04-17T02:23:00.084Z,37.15
2018-04-17T02:24:06.633Z,37.75
2018-04-17T02:25:13.176Z,38.20
2018-04-17T02:26:18.943Z,37.28
2018-04-17T02:27:25.479Z,40.30
2018-04-17T02:28:30.952Z,40.17
2018-04-17T02:29:36.719Z,40.60
2018-04-17T02:30:42.504Z,39.72
2018-04-17T02:31:48.274Z,39.60
2018-04-17T02:32:55.013Z,40.45
2018-04-17T02:34:00.808Z,39.63
2018-04-17T02:35:06.592Z,39.25
2018-04-17T02:36:12.353Z,39.72
2018-04-17T02:37:18.907Z,41.90
2018-04-17T02:38:24.686Z,41.13
2018-04-17T02:39:30.469Z,39.22
2018-04-17T02:40:36.239Z,39.92
2018-04-17T02:41:42.783Z,39.80
2018-04-17T02:42:48.605Z,39.38
2018-04-17T02:43:54.383Z,41.90
2018-04-17T02:45:00.944Z,41.10
2018-04-17T02:46:07.487Z,39.90
2018-04-17T02:47:13.260Z,42.15
2018-04-17T02:48:19.026Z,41.25
2018-04-17T02:49:24.794Z,40.50
2018-04-17T02:50:30.371Z,40.67
2018-04-17T02:51:36.908Z,41.50
2018-04-17T02:52:42.683Z,40.83
2018-04-17T02:53:48.464Z,41.15
2018-04-17T02:54:54.009Z,41.13
2018-04-17T02:55:59.805Z,38.50
2018-04-17T02:57:05.585Z,42.60
2018-04-17T02:58:11.347Z,39.58
2018-04-17T02:59:17.113Z,42.15
2018-04-17T03:00:23.806Z,40.25
2018-04-17T03:01:29.646Z,40.90
2018-04-17T03:02:35.425Z,38.85
2018-04-17T03:03:41.195Z,41.67
2018-04-17T03:04:47.775Z,40.92
2018-04-17T03:05:54.323Z,41.05
2018-04-17T03:07:00.920Z,42.62
2018-04-17T03:08:06.701Z,41.40
2018-04-17T03:09:12.475Z,40.17
2018-04-17T03:10:19.052Z,40.22
2018-04-17T03:11:24.846Z,40.25
2018-04-17T03:12:30.665Z,39.67
2018-04-17T03:13:36.471Z,41.63
2018-04-17T03:14:42.326Z,40.22
2018-04-17T03:15:48.100Z,40.28
2018-04-17T03:16:53.904Z,40.70
2018-04-17T03:17:59.701Z,40.60
2018-04-17T03:19:05.475Z,39.42
2018-04-17T03:20:12.029Z,39.83
2018-04-17T03:21:18.574Z,39.97
2018-04-17T03:22:25.851Z,41.53
2018-04-17T03:23:31.646Z,39.80
2018-04-17T03:24:37.420Z,40.83
2018-04-17T03:25:44.703Z,39.95
2018-04-17T03:26:50.475Z,39.00
2018-04-17T03:27:57.014Z,39.28
2018-04-17T03:29:02.840Z,40.75
2018-04-17T03:30:08.610Z,40.12
2018-04-17T03:31:15.150Z,41.30
2018-04-17T03:32:20.923Z,39.70
2018-04-17T03:33:27.247Z,39.53
2018-04-17T03:34:32.802Z,40.85
2018-04-17T03:35:39.347Z,40.05
2018-04-17T03:36:45.107Z,38.08
2018-04-17T03:37:51.899Z,37.05
2018-04-17T03:38:57.671Z,38.95
2018-04-17T03:40:03.471Z,41.88
2018-04-17T03:41:10.003Z,39.40
2018-04-17T03:42:15.771Z,38.72
2018-04-17T03:43:22.305Z,38.53
2018-04-17T03:44:28.075Z,38.15
2018-04-17T03:45:33.867Z,39.50
2018-04-17T03:46:39.294Z,40.75
2018-04-17T03:47:45.066Z,40.17
2018-04-17T03:48:50.834Z,38.60
2018-04-17T03:49:56.626Z,40.38
2018-04-17T03:51:02.428Z,39.42
2018-04-17T03:52:08.197Z,39.22
2018-04-17T03:53:13.983Z,40.03
2018-04-17T03:54:19.751Z,38.67
2018-04-17T03:55:25.577Z,39.97
2018-04-17T03:56:32.131Z,40.08
2018-04-17T03:57:38.677Z,38.33
2018-04-17T03:58:46.053Z,39.95
2018-04-17T03:59:51.819Z,40.55
2018-04-17T04:00:58.402Z,38.40
2018-04-17T04:02:04.299Z,39.22
2018-04-17T04:03:10.114Z,38.67
2018-04-17T04:04:15.944Z,40.53
2018-04-17T04:05:21.750Z,40.05
2018-04-17T04:06:27.561Z,38.13
2018-04-17T04:07:33.364Z,39.22
2018-04-17T04:08:39.134Z,37.13
2018-04-17T04:09:45.183Z,38.22
2018-04-17T04:10:50.948Z,36.60
2018-04-17T04:11:56.734Z,40.10
2018-04-17T04:13:02.519Z,36.45
2018-04-17T04:14:08.282Z,37.55
2018-04-17T04:15:14.059Z,38.10
2018-04-17T04:16:36.565Z,39.05
2018-04-17T04:19:41.956Z,37.10
2018-04-17T04:21:04.687Z,38.42
2018-04-17T04:22:27.231Z,37.72
2018-04-17T04:23:49.929Z,36.72
2018-04-17T04:26:47.003Z,37.87
2018-04-17T04:27:53.916Z,38.00
2018-04-17T04:28:59.731Z,37.85
2018-04-17T04:30:04.891Z,36.53
2018-04-17T04:31:10.663Z,37.88
2018-04-17T04:32:16.979Z,38.20
2018-04-17T04:33:22.742Z,35.20
2018-04-17T04:34:28.306Z,37.70
2018-04-17T04:35:34.838Z,35.63
2018-04-17T04:36:40.612Z,38.75
2018-04-17T04:37:46.472Z,37.55
2018-04-17T04:38:52.260Z,38.92
2018-04-17T04:39:58.048Z,36.60
2018-04-17T04:41:03.825Z,36.33
2018-04-17T04:42:09.575Z,36.20
2018-04-17T04:43:15.346Z,37.05
2018-04-17T04:44:21.871Z,35.00
2018-04-17T04:45:27.654Z,34.00
2018-04-17T04:46:34.221Z,34.95
2018-04-17T04:47:40.744Z,36.47
2018-04-17T04:48:47.288Z,38.20
2018-04-17T04:49:53.057Z,35.88
2018-04-17T04:50:58.639Z,35.83
2018-04-17T04:52:04.428Z,35.95
2018-04-17T04:53:11.247Z,35.85
2018-04-17T04:54:17.021Z,35.60
2018-04-17T04:55:22.808Z,35.38
2018-04-17T04:56:29.387Z,34.58
2018-04-17T04:57:35.151Z,34.92
2018-04-17T04:58:40.939Z,36.00
2018-04-17T04:59:46.701Z,35.75
2018-04-17T05:00:53.233Z,35.95
2018-04-17T05:01:59.043Z,34.88
2018-04-17T05:03:04.859Z,34.75
2018-04-17T05:04:10.656Z,33.42
2018-04-17T05:05:17.948Z,34.38
2018-04-17T05:06:24.494Z,33.92
2018-04-17T05:07:31.199Z,32.80
2018-04-17T05:08:36.988Z,33.58
2018-04-17T05:09:42.814Z,34.17
2018-04-17T05:10:48.593Z,34.83
2018-04-17T05:11:55.193Z,35.67
2018-04-17T05:13:01.887Z,34.08
2018-04-17T05:14:07.496Z,30.62
2018-04-17T05:15:13.278Z,33.03
2018-04-17T05:16:18.873Z,33.05
2018-04-17T05:17:24.645Z,32.17
2018-04-17T05:18:30.498Z,32.75
2018-04-17T05:19:36.504Z,29.70
2018-04-17T05:20:42.280Z,30.55
2018-04-17T05:21:48.060Z,31.35
2018-04-17T05:22:54.998Z,31.55
2018-04-17T05:24:00.803Z,30.12
2018-04-17T05:25:06.603Z,29.33
2018-04-17T05:26:12.683Z,32.80
2018-04-17T05:27:19.224Z,30.12
2018-04-17T05:28:24.997Z,29.12
2018-04-17T05:29:31.592Z,29.27
2018-04-17T05:30:38.173Z,29.12
2018-04-17T05:31:44.801Z,28.55
2018-04-17T05:32:50.559Z,30.05
2018-04-17T05:33:56.314Z,28.17
2018-04-17T05:35:02.104Z,28.10
2018-04-17T05:36:08.657Z,29.45
2018-04-17T05:37:15.184Z,30.10
2018-04-17T05:38:20.962Z,29.05
2018-04-17T05:39:27.492Z,27.48
2018-04-17T05:40:33.304Z,29.70
2018-04-17T05:41:39.071Z,28.00
2018-04-17T05:42:44.843Z,28.52
2018-04-17T05:43:50.600Z,26.80
2018-04-17T05:44:57.132Z,28.10
2018-04-17T05:46:02.922Z,26.45
2018-04-17T05:47:08.711Z,28.80
2018-04-17T05:48:14.484Z,28.45
2018-04-17T05:49:20.678Z,27.80
2018-04-17T05:50:26.436Z,28.75
2018-04-17T05:51:32.224Z,27.98
2018-04-17T05:52:37.995Z,27.70
2018-04-17T05:53:43.759Z,27.50
2018-04-17T05:54:49.540Z,28.05
2018-04-17T05:55:56.123Z,28.27
2018-04-17T05:57:02.112Z,28.25
2018-04-17T05:58:07.888Z,27.73
2018-04-17T05:59:14.503Z,27.02
2018-04-17T06:00:20.260Z,27.42
2018-04-17T06:01:25.796Z,25.80
2018-04-17T06:02:31.054Z,26.65
2018-04-17T06:03:37.623Z,26.75
2018-04-17T06:04:43.404Z,25.90
2018-04-17T06:05:49.695Z,26.65
2018-04-17T06:06:55.461Z,25.67
2018-04-17T06:08:02.042Z,26.27
2018-04-17T06:09:07.166Z,25.10
2018-04-17T06:10:12.951Z,24.83
2018-04-17T06:11:19.475Z,27.15
2018-04-17T06:12:25.243Z,25.65
2018-04-17T06:13:31.380Z,25.95
2018-04-17T06:14:36.922Z,25.92
2018-04-17T06:15:42.697Z,25.40
2018-04-17T06:16:48.465Z,24.87
2018-04-17T06:17:54.999Z,24.48
2018-04-17T06:19:02.295Z,27.13
2018-04-17T06:20:08.819Z,26.50
2018-04-17T06:21:14.591Z,26.90
2018-04-17T06:22:21.118Z,25.62
2018-04-17T06:23:26.893Z,22.87
2018-04-17T06:24:33.464Z,24.10
2018-04-17T06:25:40.039Z,24.60
2018-04-17T06:26:45.812Z,23.80
2018-04-17T06:27:51.591Z,25.40
2018-04-17T06:28:58.130Z,24.27
2018-04-17T06:30:03.687Z,22.65
2018-04-17T06:31:10.227Z,24.35
2018-04-17T06:32:16.002Z,23.90
2018-04-17T06:33:22.538Z,24.02
2018-04-17T06:34:29.813Z,26.05
2018-04-17T06:35:35.651Z,23.87
2018-04-17T06:36:42.178Z,23.85
2018-04-17T06:37:47.959Z,24.60
2018-04-17T06:38:53.739Z,22.77
2018-04-17T06:39:59.505Z,22.73
2018-04-17T06:41:05.299Z,23.45
2018-04-17T06:42:11.888Z,24.12
2018-04-17T06:43:17.732Z,22.08
2018-04-17T06:44:23.708Z,21.60
2018-04-17T06:45:29.481Z,20.17
2018-04-17T06:46:35.365Z,22.40
2018-04-17T06:47:41.219Z,22.40
2018-04-17T06:48:47.133Z,22.13
2018-04-17T06:49:53.671Z,18.98
2018-04-17T06:50:59.455Z,20.92
2018-04-17T06:52:05.230Z,20.02
2018-04-17T06:53:11.040Z,20.55
2018-04-17T06:54:17.581Z,20.88
2018-04-17T06:55:24.119Z,20.40
2018-04-17T06:56:29.900Z,19.17
2018-04-17T06:57:36.455Z,19.95
2018-04-17T06:58:42.216Z,19.20
2018-04-17T06:59:47.976Z,18.62
2018-04-17T07:00:53.751Z,19.20
2018-04-17T07:02:00.283Z,18.40
2018-04-17T07:03:06.089Z,17.70
2018-04-17T07:04:11.857Z,18.40
2018-04-17T07:05:17.654Z,18.42
2018-04-17T07:06:23.616Z,18.30
2018-04-17T07:07:29.379Z,18.60
2018-04-17T07:08:35.184Z,17.92
2018-04-17T07:09:41.048Z,18.55
2018-04-17T07:10:46.812Z,16.83
2018-04-17T07:11:52.583Z,16.10
2018-04-17T07:12:58.355Z,17.37
2018-04-17T07:14:05.368Z,17.98
2018-04-17T07:15:10.988Z,17.30
2018-04-17T07:16:17.444Z,17.37
2018-04-17T07:17:23.659Z,17.05
2018-04-17T07:18:30.211Z,18.60
2018-04-17T07:19:36.007Z,15.68
2018-04-17T07:20:42.593Z,17.40
2018-04-17T07:21:48.377Z,16.60
2018-04-17T07:22:54.711Z,18.17
2018-04-17T07:24:00.712Z,15.85
2018-04-17T07:25:06.501Z,16.15
2018-04-17T07:26:12.502Z,16.33
2018-04-17T07:27:18.266Z,16.08
2018-04-17T07:28:23.714Z,15.65
2018-04-17T07:29:29.502Z,15.75
2018-04-17T07:30:35.494Z,16.60
2018-04-17T07:31:41.267Z,17.37
2018-04-17T07:32:47.811Z,16.02
2018-04-17T07:33:55.140Z,18.10
2018-04-17T07:35:01.057Z,17.40
2018-04-17T07:36:07.102Z,17.33
2018-04-17T07:37:12.875Z,19.65
2018-04-17T07:38:18.663Z,17.70
2018-04-17T07:39:24.434Z,16.92
2018-04-17T07:40:31.011Z,17.45
2018-04-17T07:41:36.986Z,18.42
2018-04-17T07:42:42.752Z,18.58
2018-04-17T07:43:48.532Z,17.48
2018-04-17T07:44:55.068Z,17.45
2018-04-17T07:46:01.067Z,18.58
2018-04-17T07:47:30.934Z,17.33
2018-04-17T07:48:50.377Z,17.87
2018-04-17T07:49:56.194Z,15.77
2018-04-17T07:51:01.964Z,20.12
2018-04-17T07:52:07.737Z,19.75
2018-04-17T07:53:14.302Z,19.67
2018-04-17T07:54:20.836Z,19.20
2018-04-17T07:55:26.617Z,18.62
2018-04-17T07:56:32.393Z,18.37
2018-04-17T07:57:38.171Z,18.40
2018-04-17T07:58:44.788Z,17.27
2018-04-17T07:59:50.558Z,18.05
2018-04-17T08:00:57.834Z,18.15
2018-04-17T08:02:03.621Z,18.17
2018-04-17T08:03:09.438Z,19.50
2018-04-17T08:04:15.255Z,17.48
2018-04-17T08:05:21.039Z,17.92
2018-04-17T08:06:26.806Z,16.92
2018-04-17T08:07:32.583Z,17.45
2018-04-17T08:08:38.360Z,17.50
2018-04-17T08:09:44.155Z,18.15
2018-04-17T08:10:49.934Z,17.10
2018-04-17T08:11:56.521Z,18.35
2018-04-17T08:13:02.455Z,16.73
2018-04-17T08:14:08.308Z,14.95
2018-04-17T08:15:14.115Z,14.40
2018-04-17T08:16:20.660Z,14.90
2018-04-17T08:17:26.426Z,15.05
2018-04-17T08:18:32.644Z,15.63
2018-04-17T08:19:38.421Z,16.40
2018-04-17T08:20:44.988Z,14.60
2018-04-17T08:21:51.535Z,14.50
2018-04-17T08:22:58.130Z,14.90
2018-04-17T08:24:03.899Z,13.10
2018-04-17T08:25:09.717Z,12.73
2018-04-17T08:26:15.508Z,12.18
2018-04-17T08:27:21.276Z,11.82
2018-04-17T08:28:27.822Z,11.75
2018-04-17T08:29:34.381Z,12.73
2018-04-17T08:30:40.923Z,12.20
2018-04-17T08:31:46.723Z,12.23
2018-04-17T08:32:52.494Z,12.30
2018-04-17T08:33:58.280Z,11.75
2018-04-17T08:35:04.824Z,12.73
2018-04-17T08:36:10.609Z,11.77
2018-04-17T08:37:16.396Z,10.43
2018-04-17T08:38:22.186Z,11.23
2018-04-17T08:39:27.963Z,9.90
2018-04-17T08:40:33.732Z,10.32
2018-04-17T08:41:39.512Z,11.55
2018-04-17T08:42:45.379Z,12.00
2018-04-17T08:43:51.309Z,11.30
2018-04-17T08:44:57.080Z,10.90
2018-04-17T08:46:02.857Z,10.00
2018-04-17T08:47:09.413Z,10.73
2018-04-17T08:48:15.194Z,8.32
2018-04-17T08:49:20.957Z,8.07
2018-04-17T08:50:26.707Z,8.75
2018-04-17T08:51:32.680Z,10.00
2018-04-17T08:52:38.452Z,9.50
2018-04-17T08:53:44.266Z,9.38
2018-04-17T08:54:50.057Z,10.15
2018-04-17T08:55:55.812Z,9.07
2018-04-17T08:57:01.591Z,9.95
2018-04-17T08:58:07.360Z,9.00
2018-04-17T08:59:13.910Z,10.75
2018-04-17T09:00:20.498Z,9.52
2018-04-17T09:01:26.262Z,8.88
2018-04-17T09:02:32.081Z,9.50
2018-04-17T09:03:37.834Z,8.07
2018-04-17T09:04:43.669Z,9.07
2018-04-17T09:05:50.382Z,9.65
2018-04-17T09:06:55.901Z,9.40
2018-04-17T09:08:01.663Z,10.18
2018-04-17T09:09:06.528Z,10.40
2018-04-17T09:10:12.316Z,10.00
2018-04-17T09:11:18.093Z,10.50
2018-04-17T09:12:24.404Z,7.22
2018-04-17T09:13:30.220Z,6.07
2018-04-17T09:14:35.963Z,6.60
2018-04-17T09:15:41.755Z,6.35
2018-04-17T09:16:47.503Z,6.72
2018-04-17T09:17:53.578Z,6.40
2018-04-17T09:18:59.328Z,7.03
2018-04-17T09:20:05.330Z,6.65
2018-04-17T09:21:11.428Z,7.22
2018-04-17T09:22:17.182Z,7.68
2018-04-17T09:23:22.709Z,6.62
2018-04-17T09:24:28.454Z,6.10
2018-04-17T09:25:34.215Z,6.28
2018-04-17T09:26:40.003Z,6.85
2018-04-17T09:27:46.524Z,7.18
2018-04-17T09:28:52.262Z,6.97
2018-04-17T09:29:58.341Z,7.90
2018-04-17T09:31:04.091Z,5.87
2018-04-17T09:32:09.889Z,6.43
2018-04-17T09:33:15.726Z,5.30
2018-04-17T09:34:21.632Z,5.50
2018-04-17T09:35:28.151Z,5.22
2018-04-17T09:36:33.907Z,5.35
2018-04-17T09:37:39.683Z,7.57
2018-04-17T09:38:45.444Z,7.40
2018-04-17T09:39:51.043Z,7.55
2018-04-17T09:40:57.567Z,7.22
2018-04-17T09:42:03.323Z,7.20
2018-04-17T09:43:09.108Z,7.20
2018-04-17T09:44:14.950Z,7.20
2018-04-17T09:45:21.511Z,7.82
2018-04-17T09:46:27.271Z,7.40
2018-04-17T09:47:33.295Z,6.70
2018-04-17T09:48:40.338Z,6.97
2018-04-17T09:49:46.080Z,6.43
2018-04-17T09:50:51.841Z,4.20
2018-04-17T09:51:58.369Z,3.65
2018-04-17T09:53:04.110Z,4.87
2018-04-17T09:54:09.884Z,5.55
2018-04-17T09:55:16.399Z,6.47
2018-04-17T09:56:22.176Z,6.80
2018-04-17T09:57:27.595Z,8.52
2018-04-17T09:58:34.161Z,6.87
2018-04-17T09:59:39.696Z,8.23
2018-04-17T10:00:50.738Z,9.85
2018-04-17T10:01:56.522Z,10.10
2018-04-17T10:03:03.050Z,8.88
2018-04-17T10:04:08.807Z,9.35
2018-04-17T10:05:14.600Z,9.77
2018-04-17T10:06:20.364Z,8.75
2018-04-17T10:07:26.164Z,9.10
2018-04-17T10:08:31.921Z,8.82
2018-04-17T10:09:37.687Z,9.25
2018-04-17T10:10:43.480Z,8.50
2018-04-17T10:11:50.223Z,9.05
2018-04-17T10:12:56.000Z,9.02
2018-04-17T10:14:01.754Z,8.88
2018-04-17T10:15:07.495Z,8.50
2018-04-17T10:16:13.292Z,9.35
2018-04-17T10:17:19.816Z,9.00
2018-04-17T10:18:25.578Z,9.18
2018-04-17T10:19:31.330Z,8.98
2018-04-17T10:20:37.087Z,7.90
2018-04-17T10:21:43.398Z,9.43
2018-04-17T10:22:49.166Z,9.40
2018-04-17T10:23:54.947Z,9.38
2018-04-17T10:25:00.711Z,10.43
2018-04-17T10:26:06.466Z,9.52
2018-04-17T10:27:12.030Z,9.75
2018-04-17T10:28:17.804Z,9.68
2018-04-17T10:29:23.568Z,9.05
2018-04-17T10:30:29.335Z,9.50
2018-04-17T10:31:34.868Z,9.35
2018-04-17T10:32:40.663Z,9.65
2018-04-17T10:33:46.416Z,8.98
2018-04-17T10:34:52.284Z,8.80
2018-04-17T10:35:58.051Z,9.73
2018-04-17T10:37:03.834Z,9.43
2018-04-17T10:38:09.630Z,10.45
2018-04-17T10:39:15.398Z,9.70
2018-04-17T10:40:21.699Z,9.20
2018-04-17T10:41:27.475Z,10.27
2018-04-17T10:42:33.370Z,9.85
2018-04-17T10:43:39.171Z,10.10
2018-04-17T10:44:44.935Z,9.30
2018-04-17T10:45:51.504Z,10.20
2018-04-17T10:46:57.275Z,11.50
2018-04-17T10:48:03.051Z,9.27
2018-04-17T10:49:08.847Z,9.25
2018-04-17T10:50:14.619Z,10.90
2018-04-17T10:51:21.160Z,12.10
2018-04-17T10:52:26.964Z,10.45
2018-04-17T10:53:32.816Z,11.10
2018-04-17T10:54:38.611Z,10.45
2018-04-17T10:55:45.157Z,10.90
2018-04-17T10:56:50.928Z,10.05
2018-04-17T10:57:56.714Z,9.85
2018-04-17T10:59:02.476Z,9.88
2018-04-17T11:00:08.040Z,11.50
2018-04-17T11:01:13.806Z,10.77
2018-04-17T11:02:20.343Z,10.32
2018-04-17T11:03:26.111Z,10.93
2018-04-17T11:04:32.639Z,9.77
2018-04-17T11:05:38.431Z,10.55
2018-04-17T11:06:44.198Z,10.45
2018-04-17T11:07:49.988Z,11.10
2018-04-17T11:08:55.854Z,10.70
2018-04-17T11:10:01.611Z,9.63
2018-04-17T11:11:07.396Z,10.20
2018-04-17T11:12:12.977Z,10.65
2018-04-17T11:13:19.598Z,9.38
2018-04-17T11:14:25.368Z,10.63
2018-04-17T11:15:31.142Z,10.82
2018-04-17T11:16:36.951Z,9.77
2018-04-17T11:17:43.483Z,10.60
2018-04-17T11:18:49.253Z,9.73
2018-04-17T11:19:55.781Z,10.32
2018-04-17T11:21:01.547Z,10.55
2018-04-17T11:22:08.123Z,10.95
2018-04-17T11:23:13.959Z,11.88
2018-04-17T11:24:19.887Z,11.05
2018-04-17T11:25:26.419Z,10.48
2018-04-17T11:26:32.190Z,11.48
2018-04-17T11:27:38.754Z,10.75
2018-04-17T11:28:45.299Z,11.60
2018-04-17T11:29:50.880Z,11.38
2018-04-17T11:30:56.661Z,10.98
2018-04-17T11:32:02.439Z,11.27
2018-04-17T11:33:09.024Z,11.90
2018-04-17T11:34:14.802Z,11.52
2018-04-17T11:35:20.659Z,11.70
2018-04-17T11:36:26.432Z,11.70
2018-04-17T11:37:32.968Z,11.20
2018-04-17T11:38:38.775Z,11.88
2018-04-17T11:39:44.230Z,11.70
2018-04-17T11:40:49.999Z,11.65
2018-04-17T11:41:56.558Z,11.88
2018-04-17T11:43:03.130Z,12.25
2018-04-17T11:44:09.102Z,11.32
2018-04-17T11:45:14.906Z,11.55
2018-04-17T11:46:20.665Z,10.73
2018-04-17T11:47:26.446Z,12.90
2018-04-17T11:48:32.240Z,10.63
2018-04-17T11:49:38.791Z,12.90
2018-04-17T11:50:45.130Z,11.07
2018-04-17T11:51:50.907Z,12.27
2018-04-17T11:52:57.439Z,11.35
2018-04-17T11:54:03.227Z,10.85
2018-04-17T11:55:09.372Z,13.18
2018-04-17T11:56:15.143Z,12.02
2018-04-17T11:57:20.913Z,12.07
2018-04-17T11:58:26.682Z,13.10
2018-04-17T11:59:32.234Z,12.82
2018-04-17T12:00:38.031Z,13.73
2018-04-17T12:01:44.847Z,13.35
2018-04-17T12:02:50.629Z,12.60
2018-04-17T12:03:56.176Z,14.57
2018-04-17T12:05:02.755Z,14.18
2018-04-17T12:06:09.315Z,13.43
2018-04-17T12:07:15.858Z,13.20
2018-04-17T12:08:21.399Z,13.70
2018-04-17T12:09:27.236Z,13.65
2018-04-17T12:10:32.784Z,12.93
2018-04-17T12:11:38.577Z,12.90
2018-04-17T12:12:44.123Z,11.90
2018-04-17T12:13:49.669Z,14.48
2018-04-17T12:14:55.442Z,12.88
2018-04-17T12:16:01.751Z,13.20
2018-04-17T12:17:07.544Z,13.98
2018-04-17T12:18:14.139Z,14.25
2018-04-17T12:19:20.140Z,12.93
2018-04-17T12:20:26.076Z,13.65
2018-04-17T12:21:32.001Z,12.88
2018-04-17T12:22:37.789Z,14.93
2018-04-17T12:23:44.348Z,12.65
2018-04-17T12:24:50.900Z,14.02
2018-04-17T12:25:57.446Z,15.57
2018-04-17T12:27:03.243Z,13.30
2018-04-17T12:28:09.050Z,14.00
2018-04-17T12:29:15.584Z,15.05
2018-04-17T12:30:22.131Z,14.50
2018-04-17T12:31:27.912Z,15.32
2018-04-17T12:32:34.526Z,14.63
2018-04-17T12:33:40.405Z,14.05
2018-04-17T12:34:46.188Z,14.73
2018-04-17T12:35:51.955Z,13.93
2018-04-17T12:36:57.733Z,13.25
2018-04-17T12:38:03.543Z,14.05
2018-04-17T12:39:09.328Z,14.68
2018-04-17T12:40:15.869Z,13.30
2018-04-17T12:41:21.679Z,13.52
2018-04-17T12:42:27.449Z,15.18
2018-04-17T12:43:33.235Z,13.62
2018-04-17T12:44:39.024Z,16.02
2018-04-17T12:45:44.801Z,14.60
2018-04-17T12:46:51.336Z,15.20
2018-04-17T12:47:57.117Z,15.07
2018-04-17T12:49:02.908Z,14.77
2018-04-17T12:50:08.823Z,15.82
2018-04-17T12:51:14.594Z,14.13
2018-04-17T12:52:20.467Z,15.27
2018-04-17T12:53:27.014Z,15.73
2018-04-17T12:54:32.784Z,15.75
2018-04-17T12:55:39.367Z,14.93
2018-04-17T12:56:45.142Z,16.02
2018-04-17T12:57:50.915Z,16.23
2018-04-17T12:58:57.461Z,15.40
2018-04-17T13:00:04.234Z,15.80
2018-04-17T13:01:10.031Z,16.05
2018-04-17T13:02:15.807Z,16.55
2018-04-17T13:03:21.585Z,15.73
2018-04-17T13:04:27.363Z,15.23
2018-04-17T13:05:33.133Z,16.80
2018-04-17T13:06:38.932Z,16.95
2018-04-17T13:07:44.750Z,16.00
2018-04-17T13:08:50.698Z,16.42
2018-04-17T13:09:56.917Z,15.75
2018-04-17T13:11:02.696Z,16.15
2018-04-17T13:12:08.301Z,14.52
2018-04-17T13:13:14.068Z,16.50
2018-04-17T13:14:20.859Z,15.38
2018-04-17T13:15:26.631Z,15.68
2018-04-17T13:16:32.416Z,14.45
2018-04-17T13:17:38.209Z,16.50
2018-04-17T13:18:43.997Z,15.30
2018-04-17T13:19:50.570Z,14.10
2018-04-17T13:20:57.106Z,15.48
2018-04-17T13:23:22.022Z,15.85
2018-04-17T13:24:27.565Z,15.13
2018-04-17T13:25:33.344Z,14.20
2018-04-17T13:26:38.883Z,14.18
2018-04-17T13:27:44.690Z,14.35
2018-04-17T13:28:50.485Z,15.80
2018-04-17T13:29:56.252Z,14.82
2018-04-17T13:31:02.787Z,15.13
2018-04-17T13:32:08.565Z,13.98
2018-04-17T13:33:15.099Z,15.88
2018-04-17T13:34:20.967Z,15.75
2018-04-17T13:35:27.511Z,14.68
2018-04-17T13:36:32.950Z,14.70
2018-04-17T13:37:39.517Z,15.23
2018-04-17T13:38:46.309Z,15.30
2018-04-17T13:39:52.140Z,14.77
2018-04-17T13:40:57.683Z,16.05
2018-04-17T13:42:03.612Z,16.48
2018-04-17T13:43:09.432Z,15.77
2018-04-17T13:44:15.207Z,14.77
2018-04-17T13:45:21.042Z,15.00
2018-04-17T13:46:27.938Z,14.10
2018-04-17T13:47:33.723Z,15.50
2018-04-17T13:48:39.267Z,15.80
2018-04-17T13:49:45.139Z,15.48
2018-04-17T13:50:50.948Z,13.80
2018-04-17T13:51:57.483Z,15.77
2018-04-17T13:53:03.415Z,15.07
2018-04-17T13:54:09.203Z,15.45
2018-04-17T13:55:15.174Z,14.95
2018-04-17T13:56:20.979Z,15.40
2018-04-17T13:57:26.757Z,14.25
2018-04-17T13:58:32.536Z,13.77
2018-04-17T13:59:38.313Z,16.70
2018-04-17T14:00:44.087Z,15.70
2018-04-17T14:01:49.899Z,15.25
2018-04-17T14:02:55.693Z,16.90
2018-04-17T14:04:01.472Z,17.37
2018-04-17T14:05:07.258Z,15.15
2018-04-17T14:06:13.027Z,16.73
2018-04-17T14:07:18.819Z,16.75
2018-04-17T14:08:25.359Z,16.70
2018-04-17T14:09:31.167Z,16.25
2018-04-17T14:10:36.936Z,16.25
2018-04-17T14:11:42.708Z,11.77
2018-04-17T14:12:49.279Z,15.82
2018-04-17T14:13:55.818Z,16.52
2018-04-17T14:15:01.595Z,16.67
2018-04-17T14:16:07.380Z,15.43
2018-04-17T14:17:13.202Z,15.70
2018-04-17T14:18:19.195Z,16.50
2018-04-17T14:19:24.729Z,18.35
2018-04-17T14:20:30.511Z,18.20
2018-04-17T14:21:36.286Z,17.50